createdAt,value
2023-09-24T00:00:55.477Z,72.41
2023-09-24T00:03:21.966Z,72.51
2023-09-24T00:05:48.596Z,72.50
2023-09-24T00:08:15.062Z,72.54
2023-09-24T00:10:41.611Z,72.85
2023-09-24T00:13:08.164Z,72.75
2023-09-24T00:15:35.940Z,72.58
2023-09-24T00:18:02.541Z,72.62
2023-09-24T00:20:29.167Z,72.74
2023-09-24T00:22:55.765Z,72.92
2023-09-24T00:25:22.255Z,72.99
2023-09-24T00:27:48.824Z,72.93
2023-09-24T00:30:15.305Z,73.10
2023-09-24T00:32:43.202Z,72.92
2023-09-24T00:35:09.788Z,73.03
2023-09-24T00:37:36.212Z,73.15
2023-09-24T00:40:02.655Z,73.04
2023-09-24T00:42:29.177Z,73.50
2023-09-24T00:44:55.705Z,72.89
2023-09-24T00:47:23.150Z,73.18
2023-09-24T00:49:51.254Z,73.58
2023-09-24T00:52:18.741Z,73.12
2023-09-24T00:54:45.493Z,72.84
2023-09-24T00:57:12.451Z,73.43
2023-09-24T00:59:39.008Z,72.81
2023-09-24T01:02:05.789Z,73.24
2023-09-24T01:04:32.737Z,73.37
2023-09-24T01:07:00.500Z,73.43
2023-09-24T01:09:26.952Z,73.30
2023-09-24T01:11:53.398Z,73.66
2023-09-24T01:14:20.016Z,73.70
2023-09-24T01:16:46.671Z,73.32
2023-09-24T01:19:13.265Z,73.46
2023-09-24T01:21:42.094Z,73.56
2023-09-24T01:24:10.435Z,73.80
2023-09-24T01:26:36.901Z,73.61
2023-09-24T01:29:03.364Z,73.44
2023-09-24T01:31:29.866Z,73.78
2023-09-24T01:33:56.740Z,73.67
2023-09-24T01:36:23.399Z,73.44
2023-09-24T01:38:49.935Z,73.23
2023-09-24T01:41:17.994Z,73.61
2023-09-24T01:43:44.574Z,73.28
2023-09-24T01:46:11.886Z,73.29
2023-09-24T01:48:38.403Z,73.57
2023-09-24T01:51:09.108Z,73.47
2023-09-24T01:53:35.628Z,73.18
2023-09-24T01:56:02.174Z,72.73
2023-09-24T01:58:30.026Z,72.85
2023-09-24T02:00:56.566Z,73.00
2023-09-24T02:03:23.041Z,73.00
2023-09-24T02:05:49.606Z,73.40
2023-09-24T02:08:16.124Z,73.65
2023-09-24T02:10:42.655Z,73.38
2023-09-24T02:13:09.100Z,73.69
2023-09-24T02:15:38.690Z,73.40
2023-09-24T02:18:05.685Z,73.53
2023-09-24T02:20:32.543Z,73.82
2023-09-24T02:23:03.949Z,73.18
2023-09-24T02:25:32.544Z,73.10
2023-09-24T02:28:00.435Z,73.30
2023-09-24T02:30:31.275Z,73.34
2023-09-24T02:33:02.736Z,73.78
2023-09-24T02:35:30.056Z,73.66
2023-09-24T02:37:56.740Z,73.63
2023-09-24T02:40:23.779Z,73.69
2023-09-24T02:42:52.676Z,73.45
2023-09-24T02:45:19.781Z,73.60
2023-09-24T02:47:47.598Z,73.65
2023-09-24T02:50:15.443Z,73.89
2023-09-24T02:52:43.060Z,73.80
2023-09-24T02:55:11.336Z,73.82
2023-09-24T02:57:38.156Z,73.75
2023-09-24T03:00:06.096Z,73.68
2023-09-24T03:02:32.592Z,73.58
2023-09-24T03:04:59.103Z,73.54
2023-09-24T03:07:27.020Z,74.11
2023-09-24T03:09:56.685Z,73.63
2023-09-24T03:12:23.232Z,73.76
2023-09-24T03:14:49.713Z,73.37
2023-09-24T03:17:16.172Z,73.27
2023-09-24T03:19:42.598Z,73.38
2023-09-24T03:22:09.167Z,73.08
2023-09-24T03:24:37.313Z,73.03
2023-09-24T03:27:03.771Z,72.89
2023-09-24T03:29:30.315Z,72.85
2023-09-24T03:31:56.840Z,73.07
2023-09-24T03:34:23.386Z,72.88
2023-09-24T03:36:49.785Z,73.07
2023-09-24T03:39:16.389Z,73.07
2023-09-24T03:41:44.355Z,73.33
2023-09-24T03:44:10.960Z,73.10
2023-09-24T03:46:37.476Z,73.47
2023-09-24T03:49:03.934Z,73.45
2023-09-24T03:51:30.329Z,73.10
2023-09-24T03:53:56.806Z,72.83
2023-09-24T03:56:23.362Z,72.72
2023-09-24T03:58:51.157Z,72.95
2023-09-24T04:01:17.734Z,72.52
2023-09-24T04:03:44.457Z,72.46
2023-09-24T04:06:11.556Z,72.71
2023-09-24T04:08:38.144Z,72.67
2023-09-24T04:11:06.978Z,72.74
2023-09-24T04:13:33.410Z,73.27
2023-09-24T04:16:09.208Z,73.23
2023-09-24T04:18:35.981Z,72.93
2023-09-24T04:21:02.632Z,73.10
2023-09-24T04:23:29.244Z,72.87
2023-09-24T04:25:55.682Z,72.99
2023-09-24T04:28:22.191Z,72.86
2023-09-24T04:30:48.622Z,73.02
2023-09-24T04:33:16.450Z,72.92
2023-09-24T04:35:43.072Z,72.90
2023-09-24T04:38:09.518Z,73.04
2023-09-24T04:40:36.115Z,72.83
2023-09-24T04:43:03.167Z,72.68
2023-09-24T04:45:29.597Z,72.86
2023-09-24T04:47:56.144Z,72.59
2023-09-24T04:50:24.604Z,72.71
2023-09-24T04:52:51.256Z,72.73
2023-09-24T04:55:18.035Z,72.63
2023-09-24T04:57:53.484Z,72.95
2023-09-24T05:00:20.120Z,72.79
2023-09-24T05:02:47.076Z,72.88
2023-09-24T05:05:15.906Z,72.36
2023-09-24T05:07:44.123Z,72.78
2023-09-24T05:10:10.994Z,72.92
2023-09-24T05:12:37.547Z,72.66
2023-09-24T05:15:05.464Z,72.62
2023-09-24T05:17:32.182Z,72.74
2023-09-24T05:19:58.763Z,72.68
2023-09-24T05:22:25.554Z,72.26
2023-09-24T05:24:53.355Z,72.18
2023-09-24T05:27:19.857Z,72.21
2023-09-24T05:29:46.946Z,72.29
2023-09-24T05:32:13.713Z,72.01
2023-09-24T05:34:40.111Z,71.85
2023-09-24T05:37:06.645Z,71.81
2023-09-24T05:39:33.048Z,71.75
2023-09-24T05:42:00.926Z,71.38
2023-09-24T05:44:27.341Z,71.17
2023-09-24T05:46:53.819Z,71.07
2023-09-24T05:49:20.190Z,71.35
2023-09-24T05:51:47.350Z,70.71
2023-09-24T05:54:13.822Z,70.85
2023-09-24T05:56:40.412Z,70.33
2023-09-24T05:59:08.577Z,70.32
2023-09-24T06:01:35.180Z,69.56
2023-09-24T06:04:01.737Z,68.91
2023-09-24T06:06:28.408Z,68.25
2023-09-24T06:08:55.127Z,67.36
2023-09-24T06:11:21.659Z,66.56
2023-09-24T06:13:48.467Z,65.42
2023-09-24T06:16:16.590Z,64.42
2023-09-24T06:18:43.108Z,63.66
2023-09-24T06:21:14.628Z,62.50
2023-09-24T06:23:41.110Z,61.99
2023-09-24T06:26:07.705Z,60.57
2023-09-24T06:28:34.187Z,59.55
2023-09-24T06:31:01.287Z,59.06
2023-09-24T06:33:29.271Z,58.87
2023-09-24T06:35:56.082Z,58.38
2023-09-24T06:38:23.116Z,57.58
2023-09-24T06:40:56.813Z,57.20
2023-09-24T06:43:23.340Z,57.17
2023-09-24T06:45:49.857Z,56.11
2023-09-24T06:48:21.601Z,55.69
2023-09-24T06:50:49.785Z,55.48
2023-09-24T06:53:16.414Z,55.54
2023-09-24T06:55:43.308Z,54.76
2023-09-24T06:58:09.857Z,54.35
2023-09-24T07:00:36.446Z,53.94
2023-09-24T07:03:03.401Z,53.57
2023-09-24T07:05:29.997Z,52.72
2023-09-24T07:07:57.792Z,53.20
2023-09-24T07:10:24.606Z,51.70
2023-09-24T07:12:52.390Z,52.11
2023-09-24T07:15:18.899Z,51.67
2023-09-24T07:17:45.395Z,51.15
2023-09-24T07:20:13.205Z,51.22
2023-09-24T07:22:39.726Z,50.49
2023-09-24T07:25:08.280Z,50.30
2023-09-24T07:27:34.802Z,50.16
2023-09-24T07:30:01.306Z,50.25
2023-09-24T07:32:27.958Z,49.86
2023-09-24T07:34:54.458Z,49.60
2023-09-24T07:37:20.930Z,49.22
2023-09-24T07:39:47.399Z,49.06
2023-09-24T07:42:15.192Z,48.79
2023-09-24T07:44:41.732Z,48.04
2023-09-24T07:47:08.550Z,47.61
2023-09-24T07:49:35.001Z,47.64
2023-09-24T07:52:01.525Z,47.79
2023-09-24T07:54:27.967Z,46.69
2023-09-24T07:56:54.466Z,46.25
2023-09-24T07:59:22.306Z,46.42
2023-09-24T08:01:48.704Z,45.39
2023-09-24T08:04:15.154Z,45.08
2023-09-24T08:06:41.557Z,45.48
2023-09-24T08:09:23.190Z,46.10
2023-09-24T08:11:52.280Z,46.16
2023-09-24T08:14:18.828Z,45.84
2023-09-24T08:16:46.627Z,45.26
2023-09-24T08:19:13.379Z,45.30
2023-09-24T08:21:39.804Z,45.49
2023-09-24T08:24:07.038Z,44.67
2023-09-24T08:26:33.655Z,44.02
2023-09-24T08:29:00.435Z,44.21
2023-09-24T08:31:26.985Z,44.77
2023-09-24T08:33:54.853Z,44.87
2023-09-24T08:36:21.537Z,44.20
2023-09-24T08:38:48.107Z,43.98
2023-09-24T08:41:14.623Z,44.75
2023-09-24T08:43:42.838Z,44.38
2023-09-24T08:46:10.146Z,43.85
2023-09-24T08:48:37.972Z,43.99
2023-09-24T08:51:07.963Z,43.82
2023-09-24T08:53:36.033Z,44.19
2023-09-24T08:56:11.622Z,44.68
2023-09-24T08:58:57.632Z,44.03
2023-09-24T09:01:24.251Z,44.76
2023-09-24T09:03:50.940Z,46.07
2023-09-24T09:06:31.392Z,44.53
2023-09-24T09:08:59.730Z,45.05
2023-09-24T09:11:38.997Z,43.97
2023-09-24T09:14:05.786Z,43.83
2023-09-24T09:16:32.368Z,44.87
2023-09-24T09:19:00.518Z,44.46
2023-09-24T09:21:28.450Z,44.43
2023-09-24T09:23:55.516Z,44.63
2023-09-24T09:26:26.344Z,44.83
2023-09-24T09:28:52.837Z,45.09
2023-09-24T09:31:19.313Z,44.91
2023-09-24T09:33:46.368Z,45.16
2023-09-24T09:36:23.070Z,45.22
2023-09-24T09:38:51.564Z,45.56
2023-09-24T09:41:19.502Z,44.70
2023-09-24T09:43:47.246Z,44.78
2023-09-24T09:46:18.458Z,44.34
2023-09-24T09:48:51.696Z,45.81
2023-09-24T09:51:20.762Z,45.40
2023-09-24T09:53:48.171Z,45.44
2023-09-24T09:56:16.789Z,45.28
2023-09-24T09:58:44.418Z,45.87
2023-09-24T10:01:10.925Z,45.55
2023-09-24T10:03:40.453Z,45.40
2023-09-24T10:06:09.433Z,44.62
2023-09-24T10:08:41.223Z,44.90
2023-09-24T10:11:09.186Z,44.39
2023-09-24T10:13:47.662Z,44.30
2023-09-24T10:16:34.886Z,44.37
2023-09-24T10:19:02.693Z,43.76
2023-09-24T10:21:30.167Z,43.18
2023-09-24T10:23:57.520Z,44.36
2023-09-24T10:26:47.214Z,44.03
2023-09-24T10:29:16.302Z,44.74
2023-09-24T10:32:13.694Z,43.75
2023-09-24T10:35:08.300Z,43.15
2023-09-24T10:37:35.199Z,42.46
2023-09-24T10:40:06.285Z,42.94
2023-09-24T10:42:34.448Z,42.19
2023-09-24T10:45:26.335Z,41.60
2023-09-24T10:47:52.820Z,42.30
2023-09-24T10:50:20.945Z,42.62
2023-09-24T10:52:48.721Z,43.18
2023-09-24T10:55:18.831Z,42.17
2023-09-24T10:57:45.707Z,42.66
2023-09-24T11:00:16.860Z,42.88
2023-09-24T11:02:46.521Z,43.57
2023-09-24T11:05:13.241Z,44.02
2023-09-24T11:07:39.656Z,42.30
2023-09-24T11:10:06.890Z,43.21
2023-09-24T11:12:33.356Z,42.70
2023-09-24T11:15:15.016Z,43.51
2023-09-24T11:17:42.402Z,41.49
2023-09-24T11:20:10.631Z,41.94
2023-09-24T11:22:37.216Z,43.40
2023-09-24T11:25:10.967Z,43.27
2023-09-24T11:27:45.742Z,42.04
2023-09-24T11:30:12.858Z,41.17
2023-09-24T11:32:39.484Z,42.24
2023-09-24T11:35:07.335Z,42.04
2023-09-24T11:37:49.540Z,41.60
2023-09-24T11:40:27.061Z,42.81
2023-09-24T11:42:54.800Z,41.74
2023-09-24T11:45:41.976Z,42.13
2023-09-24T11:48:09.730Z,41.91
2023-09-24T11:50:36.383Z,42.56
2023-09-24T11:53:04.547Z,41.47
2023-09-24T11:55:31.489Z,41.69
2023-09-24T11:57:57.934Z,42.10
2023-09-24T12:00:25.169Z,41.20
2023-09-24T12:02:51.804Z,40.98
2023-09-24T12:05:32.409Z,41.42
2023-09-24T12:08:00.687Z,41.48
2023-09-24T12:10:28.622Z,41.14
2023-09-24T12:12:55.479Z,39.99
2023-09-24T12:15:21.997Z,41.39
2023-09-24T12:17:48.471Z,40.50
2023-09-24T12:20:15.286Z,40.86
2023-09-24T12:22:42.823Z,41.21
2023-09-24T12:25:09.926Z,40.19
2023-09-24T12:27:38.072Z,40.49
2023-09-24T12:30:05.905Z,39.28
2023-09-24T12:32:32.595Z,39.83
2023-09-24T12:34:59.477Z,39.57
2023-09-24T12:37:28.690Z,39.39
2023-09-24T12:39:57.661Z,40.89
2023-09-24T12:42:24.089Z,39.12
2023-09-24T12:44:52.008Z,39.27
2023-09-24T12:47:18.462Z,39.28
2023-09-24T12:49:45.002Z,37.95
2023-09-24T12:52:11.446Z,37.75
2023-09-24T12:54:37.831Z,38.34
2023-09-24T12:57:04.327Z,37.50
2023-09-24T12:59:30.771Z,36.34
2023-09-24T13:01:58.561Z,36.69
2023-09-24T13:04:25.195Z,36.61
2023-09-24T13:06:51.964Z,36.40
2023-09-24T13:09:18.450Z,36.77
2023-09-24T13:11:45.458Z,36.84
2023-09-24T13:14:12.943Z,36.11
2023-09-24T13:16:39.647Z,35.52
2023-09-24T13:19:07.613Z,35.85
2023-09-24T13:21:34.123Z,35.81
2023-09-24T13:24:00.558Z,35.42
2023-09-24T13:26:26.965Z,35.73
2023-09-24T13:28:53.422Z,36.26
2023-09-24T13:31:19.937Z,36.27
2023-09-24T13:33:46.633Z,36.64
2023-09-24T13:36:14.575Z,36.40
2023-09-24T13:38:41.222Z,36.33
2023-09-24T13:41:11.008Z,35.88
2023-09-24T13:43:37.535Z,36.39
2023-09-24T13:46:04.435Z,36.40
2023-09-24T13:48:31.103Z,35.51
2023-09-24T13:50:57.836Z,35.55
2023-09-24T13:53:25.630Z,36.19
2023-09-24T13:55:52.410Z,36.04
2023-09-24T13:58:19.121Z,35.83
2023-09-24T14:00:46.127Z,36.94
2023-09-24T14:03:12.653Z,38.83
2023-09-24T14:05:39.173Z,38.15
2023-09-24T14:08:05.726Z,38.11
2023-09-24T14:10:40.030Z,38.26
2023-09-24T14:13:06.497Z,38.21
2023-09-24T14:15:35.211Z,37.87
2023-09-24T14:18:13.902Z,37.24
2023-09-24T14:20:41.570Z,37.60
2023-09-24T14:23:08.102Z,37.52
2023-09-24T14:25:39.835Z,37.62
2023-09-24T14:28:06.679Z,37.82
2023-09-24T14:30:35.817Z,37.90
2023-09-24T14:33:02.372Z,37.32
2023-09-24T14:35:28.936Z,37.55
2023-09-24T14:37:55.388Z,38.03
2023-09-24T14:40:21.937Z,37.08
2023-09-24T14:42:50.138Z,36.56
2023-09-24T14:45:16.636Z,35.89
2023-09-24T14:47:43.948Z,34.75
2023-09-24T14:50:10.510Z,35.41
2023-09-24T14:52:36.924Z,35.73
2023-09-24T14:55:03.815Z,35.54
2023-09-24T14:57:30.251Z,35.29
2023-09-24T14:59:58.169Z,35.24
2023-09-24T15:02:24.699Z,35.49
2023-09-24T15:04:51.442Z,34.96
2023-09-24T15:07:17.872Z,34.81
2023-09-24T15:09:44.823Z,34.85
2023-09-24T15:12:11.549Z,35.26
2023-09-24T15:14:37.966Z,34.90
2023-09-24T15:17:05.719Z,35.25
2023-09-24T15:19:32.159Z,34.55
2023-09-24T15:21:58.534Z,35.06
2023-09-24T15:24:25.005Z,35.25
2023-09-24T15:26:51.478Z,34.75
2023-09-24T15:29:17.909Z,34.84
2023-09-24T15:31:44.435Z,35.07
2023-09-24T15:34:12.229Z,35.16
2023-09-24T15:36:38.703Z,35.33
2023-09-24T15:39:05.346Z,35.30
2023-09-24T15:41:31.807Z,35.55
2023-09-24T15:43:58.268Z,35.81
2023-09-24T15:46:24.671Z,35.94
2023-09-24T15:48:51.134Z,35.82
2023-09-24T15:51:20.804Z,35.99
2023-09-24T15:53:48.941Z,35.91
2023-09-24T15:56:15.706Z,37.14
2023-09-24T15:58:42.269Z,36.71
2023-09-24T16:01:08.855Z,36.90
2023-09-24T16:03:35.532Z,37.26
2023-09-24T16:06:02.149Z,37.30
2023-09-24T16:08:30.247Z,37.56
2023-09-24T16:10:56.746Z,37.38
2023-09-24T16:13:23.279Z,38.02
2023-09-24T16:15:49.720Z,38.61
2023-09-24T16:18:16.288Z,39.31
2023-09-24T16:20:43.799Z,39.28
2023-09-24T16:23:11.460Z,39.31
2023-09-24T16:25:39.233Z,39.79
2023-09-24T16:28:06.028Z,39.63
2023-09-24T16:30:32.462Z,39.75
2023-09-24T16:32:58.968Z,40.04
2023-09-24T16:35:25.592Z,40.75
2023-09-24T16:37:51.997Z,40.83
2023-09-24T16:40:18.818Z,41.15
2023-09-24T16:42:46.576Z,41.77
2023-09-24T16:45:13.018Z,42.01
2023-09-24T16:47:39.528Z,42.42
2023-09-24T16:50:06.835Z,43.34
2023-09-24T16:52:33.312Z,42.64
2023-09-24T16:54:59.729Z,43.00
2023-09-24T16:57:26.194Z,43.81
2023-09-24T16:59:54.230Z,43.86
2023-09-24T17:02:20.704Z,44.42
2023-09-24T17:04:47.242Z,44.83
2023-09-24T17:07:13.934Z,44.88
2023-09-24T17:10:08.402Z,45.56
2023-09-24T17:12:36.283Z,44.98
2023-09-24T17:15:07.871Z,46.09
2023-09-24T17:17:35.128Z,46.73
2023-09-24T17:20:07.702Z,46.83
2023-09-24T17:22:34.696Z,47.19
2023-09-24T17:25:01.668Z,47.62
2023-09-24T17:27:28.848Z,47.91
2023-09-24T17:29:57.543Z,47.83
2023-09-24T17:32:31.457Z,48.37
2023-09-24T17:35:01.394Z,48.98
2023-09-24T17:37:36.724Z,49.11
2023-09-24T17:40:08.599Z,49.24
2023-09-24T17:42:41.432Z,49.58
2023-09-24T17:45:17.545Z,49.71
2023-09-24T17:47:45.645Z,50.07
2023-09-24T17:50:16.810Z,50.18
2023-09-24T17:52:46.654Z,50.47
2023-09-24T17:55:17.209Z,50.67
2023-09-24T17:57:43.870Z,51.05
2023-09-24T18:00:25.017Z,51.31
2023-09-24T18:02:57.964Z,51.88
2023-09-24T18:05:27.863Z,51.72
2023-09-24T18:07:54.481Z,51.70
2023-09-24T18:10:21.049Z,52.13
2023-09-24T18:12:47.600Z,52.34
2023-09-24T18:15:29.201Z,52.57
2023-09-24T18:18:12.874Z,52.90
2023-09-24T18:20:39.945Z,52.90
2023-09-24T18:23:06.389Z,53.36
2023-09-24T18:25:41.022Z,53.11
2023-09-24T18:28:12.830Z,52.68
2023-09-24T18:30:42.157Z,53.32
2023-09-24T18:33:11.835Z,53.06
2023-09-24T18:35:41.589Z,53.42
2023-09-24T18:38:09.145Z,52.90
2023-09-24T18:40:36.707Z,52.80
2023-09-24T18:43:09.080Z,52.42
2023-09-24T18:45:36.357Z,52.31
2023-09-24T18:48:03.253Z,51.83
2023-09-24T18:50:29.984Z,51.60
2023-09-24T18:52:57.788Z,51.67
2023-09-24T18:55:24.359Z,51.31
2023-09-24T18:57:50.835Z,51.02
2023-09-24T19:00:17.482Z,50.73
2023-09-24T19:02:44.251Z,50.29
2023-09-24T19:05:11.671Z,50.29
2023-09-24T19:07:38.547Z,50.08
2023-09-24T19:10:10.073Z,49.69
2023-09-24T19:12:36.542Z,49.98
2023-09-24T19:15:03.335Z,49.98
2023-09-24T19:17:30.042Z,49.66
2023-09-24T19:19:56.600Z,49.35
2023-09-24T19:22:25.129Z,49.34
2023-09-24T19:24:52.591Z,49.08
2023-09-24T19:27:20.687Z,48.86
2023-09-24T19:29:47.320Z,48.72
2023-09-24T19:32:13.962Z,48.47
2023-09-24T19:34:40.551Z,48.45
2023-09-24T19:37:07.461Z,48.54
2023-09-24T19:39:34.061Z,48.89
2023-09-24T19:42:00.969Z,48.34
2023-09-24T19:44:29.231Z,49.07
2023-09-24T19:46:55.898Z,48.91
2023-09-24T19:49:31.640Z,48.56
2023-09-24T19:51:58.222Z,49.17
2023-09-24T19:54:27.001Z,49.17
2023-09-24T19:56:53.666Z,49.28
2023-09-24T19:59:20.315Z,49.19
2023-09-24T20:01:48.256Z,49.35
2023-09-24T20:04:17.670Z,49.19
2023-09-24T20:06:44.240Z,50.00
2023-09-24T20:09:14.122Z,50.06
2023-09-24T20:11:43.630Z,49.97
2023-09-24T20:14:10.327Z,50.10
2023-09-24T20:16:37.057Z,50.46
2023-09-24T20:19:05.136Z,50.47
2023-09-24T20:21:32.345Z,51.42
2023-09-24T20:23:59.178Z,50.83
2023-09-24T20:26:25.701Z,50.73
2023-09-24T20:28:52.301Z,51.12
2023-09-24T20:31:20.934Z,51.12
2023-09-24T20:34:00.053Z,51.44
2023-09-24T20:36:29.210Z,51.39
2023-09-24T20:39:01.662Z,51.61
2023-09-24T20:41:28.771Z,51.68
2023-09-24T20:43:55.703Z,51.82
2023-09-24T20:46:23.747Z,51.85
2023-09-24T20:48:50.535Z,51.85
2023-09-24T20:51:17.330Z,51.74
2023-09-24T20:53:45.477Z,52.40
2023-09-24T20:56:15.190Z,52.11
2023-09-24T20:58:43.498Z,52.11
2023-09-24T21:01:10.149Z,52.30
2023-09-24T21:03:37.700Z,52.54
2023-09-24T21:06:04.791Z,52.41
2023-09-24T21:08:31.313Z,52.25
2023-09-24T21:10:59.324Z,52.43
2023-09-24T21:13:25.972Z,52.82
2023-09-24T21:15:52.593Z,52.65
2023-09-24T21:18:19.292Z,52.74
2023-09-24T21:20:47.859Z,53.32
2023-09-24T21:23:17.145Z,53.31
2023-09-24T21:25:43.819Z,53.20
2023-09-24T21:28:11.848Z,53.58
2023-09-24T21:30:38.622Z,53.36
2023-09-24T21:33:05.779Z,53.25
2023-09-24T21:35:32.479Z,53.67
2023-09-24T21:37:59.147Z,53.19
2023-09-24T21:40:25.651Z,53.38
2023-09-24T21:42:52.496Z,53.78
2023-09-24T21:45:21.116Z,53.38
2023-09-24T21:47:47.722Z,53.40
2023-09-24T21:50:15.195Z,53.48
2023-09-24T21:52:41.991Z,53.46
2023-09-24T21:55:10.000Z,53.71
2023-09-24T21:57:36.530Z,53.48
2023-09-24T22:00:03.504Z,53.58
2023-09-24T22:02:32.214Z,53.68
2023-09-24T22:04:59.021Z,53.64
2023-09-24T22:07:28.742Z,53.76
2023-09-24T22:09:55.770Z,53.85
2023-09-24T22:12:22.647Z,53.68
2023-09-24T22:14:49.134Z,53.85
2023-09-24T22:17:15.695Z,53.69
2023-09-24T22:19:57.180Z,54.25
2023-09-24T22:22:24.126Z,54.25
2023-09-24T22:24:51.186Z,54.06
2023-09-24T22:27:18.217Z,53.78
2023-09-24T22:29:46.694Z,54.12
2023-09-24T22:32:13.479Z,54.07
2023-09-24T22:35:01.124Z,54.14
2023-09-24T22:37:27.835Z,54.25
2023-09-24T22:39:54.375Z,54.60
2023-09-24T22:42:22.403Z,54.73
2023-09-24T22:44:49.165Z,54.33
2023-09-24T22:47:15.730Z,54.67
2023-09-24T22:49:43.218Z,54.17
2023-09-24T22:52:11.680Z,54.31
2023-09-24T22:54:38.377Z,54.31
2023-09-24T22:57:05.246Z,54.33
2023-09-24T22:59:31.867Z,54.47
2023-09-24T23:01:58.631Z,54.67
2023-09-24T23:04:25.252Z,54.27
2023-09-24T23:06:52.032Z,54.23
2023-09-24T23:09:19.925Z,54.67
2023-09-24T23:11:46.840Z,54.35
2023-09-24T23:14:13.249Z,54.59
2023-09-24T23:16:39.788Z,54.88
2023-09-24T23:19:06.267Z,55.07
2023-09-24T23:21:32.847Z,55.14
2023-09-24T23:23:59.584Z,55.13
2023-09-24T23:26:27.608Z,55.20
2023-09-24T23:28:54.560Z,55.03
2023-09-24T23:31:21.336Z,55.24
2023-09-24T23:33:47.820Z,55.01
2023-09-24T23:36:14.464Z,54.98
2023-09-24T23:38:40.872Z,55.14
2023-09-24T23:41:07.515Z,55.18
2023-09-24T23:43:35.418Z,55.43
2023-09-24T23:46:02.221Z,55.10
2023-09-24T23:48:28.771Z,55.11
2023-09-24T23:50:55.280Z,55.43
2023-09-24T23:53:21.679Z,55.31
2023-09-24T23:55:50.622Z,55.32
2023-09-24T23:58:17.108Z,55.22
